createdAt,value
2022-11-24T00:00:55.152Z,100030.34
2022-11-24T00:03:21.650Z,100020.50
2022-11-24T00:05:48.700Z,100024.84
2022-11-24T00:08:15.142Z,100027.63
2022-11-24T00:10:41.587Z,100031.09
2022-11-24T00:13:08.001Z,100025.63
2022-11-24T00:15:34.456Z,100033.13
2022-11-24T00:18:00.883Z,100030.75
2022-11-24T00:20:27.318Z,100029.59
2022-11-24T00:22:53.890Z,100025.66
2022-11-24T00:25:20.325Z,100025.28
2022-11-24T00:27:46.774Z,100040.31
2022-11-24T00:30:13.502Z,100033.38
2022-11-24T00:32:39.922Z,100034.44
2022-11-24T00:35:07.640Z,100042.78
2022-11-24T00:37:34.087Z,100037.63
2022-11-24T00:40:00.564Z,100036.47
2022-11-24T00:42:26.973Z,100033.31
2022-11-24T00:44:53.400Z,100040.84
2022-11-24T00:47:19.850Z,100045.56
2022-11-24T00:49:46.289Z,100041.66
2022-11-24T00:52:12.737Z,100040.03
2022-11-24T00:54:39.144Z,100041.25
2022-11-24T00:57:05.589Z,100045.56
2022-11-24T00:59:32.585Z,100048.78
2022-11-24T01:01:59.143Z,100048.81
2022-11-24T01:04:25.699Z,100060.72
2022-11-24T01:06:52.121Z,100057.91
2022-11-24T01:09:18.598Z,100061.81
2022-11-24T01:12:04.127Z,100063.84
2022-11-24T01:14:33.240Z,100071.38
2022-11-24T01:17:00.000Z,100070.94
2022-11-24T01:19:26.491Z,100076.06
2022-11-24T01:21:53.114Z,100078.44
2022-11-24T01:24:19.814Z,100081.22
2022-11-24T01:26:46.261Z,100075.72
2022-11-24T01:29:12.955Z,100082.81
2022-11-24T01:31:39.728Z,100081.66
2022-11-24T01:34:06.332Z,100082.81
2022-11-24T01:36:33.284Z,100080.88
2022-11-24T01:38:59.817Z,100082.06
2022-11-24T01:41:26.831Z,100085.22
2022-11-24T01:43:55.260Z,100090.00
2022-11-24T01:46:47.321Z,100097.88
2022-11-24T01:49:19.724Z,100088.44
2022-11-24T01:51:55.168Z,100086.06
2022-11-24T01:54:45.227Z,100093.97
2022-11-24T01:57:20.303Z,100096.78
2022-11-24T01:59:50.706Z,100099.94
2022-11-24T02:02:17.728Z,100094.00
2022-11-24T02:04:45.279Z,100097.94
2022-11-24T02:07:12.806Z,100100.28
2022-11-24T02:09:49.045Z,100099.06
2022-11-24T02:12:15.469Z,100097.88
2022-11-24T02:14:43.496Z,100097.06
2022-11-24T02:17:10.264Z,100108.47
2022-11-24T02:19:39.382Z,100102.53
2022-11-24T02:22:11.013Z,100096.97
2022-11-24T02:24:37.443Z,100099.69
2022-11-24T02:27:04.064Z,100097.75
2022-11-24T02:29:30.597Z,100107.97
2022-11-24T02:32:03.107Z,100102.84
2022-11-24T02:34:29.539Z,100112.28
2022-11-24T02:36:56.002Z,100106.41
2022-11-24T02:39:22.464Z,100109.56
2022-11-24T02:42:00.543Z,100104.88
2022-11-24T02:44:32.553Z,100114.34
2022-11-24T02:47:07.207Z,100102.97
2022-11-24T02:49:33.835Z,100118.72
2022-11-24T02:52:00.710Z,100115.16
2022-11-24T02:54:27.317Z,100117.09
2022-11-24T02:56:53.755Z,100120.63
2022-11-24T02:59:20.514Z,100117.09
2022-11-24T03:01:47.009Z,100115.91
2022-11-24T03:04:13.612Z,100126.19
2022-11-24T03:06:40.182Z,100127.72
2022-11-24T03:09:06.950Z,100126.94
2022-11-24T03:11:33.399Z,100132.06
2022-11-24T03:13:59.816Z,100135.97
2022-11-24T03:16:26.286Z,100140.19
2022-11-24T03:18:53.533Z,100136.28
2022-11-24T03:21:20.337Z,100136.22
2022-11-24T03:23:46.875Z,100135.47
2022-11-24T03:26:17.125Z,100132.72
2022-11-24T03:28:44.573Z,100138.56
2022-11-24T03:31:11.559Z,100142.09
2022-11-24T03:33:38.284Z,100144.88
2022-11-24T03:36:06.346Z,100140.91
2022-11-24T03:38:33.173Z,100145.69
2022-11-24T03:40:59.632Z,100150.41
2022-11-24T03:43:26.073Z,100150.03
2022-11-24T03:45:52.508Z,100155.56
2022-11-24T03:48:21.191Z,100150.78
2022-11-24T03:50:56.354Z,100148.84
2022-11-24T03:53:24.161Z,100151.19
2022-11-24T03:55:50.632Z,100148.09
2022-11-24T03:58:17.290Z,100155.22
2022-11-24T04:00:43.709Z,100169.78
2022-11-24T04:03:10.181Z,100168.56
2022-11-24T04:05:36.967Z,100171.41
2022-11-24T04:08:05.288Z,100179.69
2022-11-24T04:10:35.839Z,100179.63
2022-11-24T04:13:03.866Z,100178.81
2022-11-24T04:15:30.336Z,100175.66
2022-11-24T04:17:58.034Z,100174.81
2022-11-24T04:20:24.620Z,100176.03
2022-11-24T04:22:51.758Z,100171.66
2022-11-24T04:25:18.677Z,100177.59
2022-11-24T04:27:45.656Z,100170.91
2022-11-24T04:30:12.330Z,100185.06
2022-11-24T04:32:38.752Z,100178.72
2022-11-24T04:35:05.544Z,100183.47
2022-11-24T04:37:32.028Z,100190.97
2022-11-24T04:39:58.464Z,100191.75
2022-11-24T04:42:24.960Z,100200.38
2022-11-24T04:44:51.379Z,100196.00
2022-11-24T04:47:24.348Z,100198.31
2022-11-24T04:49:51.339Z,100211.78
2022-11-24T04:52:19.587Z,100208.28
2022-11-24T04:54:47.141Z,100219.69
2022-11-24T04:57:17.711Z,100221.69
2022-11-24T04:59:44.333Z,100219.41
2022-11-24T05:02:11.773Z,100222.50
2022-11-24T05:04:38.517Z,100220.97
2022-11-24T05:07:05.452Z,100220.63
2022-11-24T05:09:48.231Z,100222.97
2022-11-24T05:12:18.331Z,100241.59
2022-11-24T05:14:45.288Z,100230.13
2022-11-24T05:17:11.718Z,100239.63
2022-11-24T05:19:38.195Z,100241.59
2022-11-24T05:22:04.617Z,100242.38
2022-11-24T05:24:31.078Z,100249.91
2022-11-24T05:26:57.546Z,100251.47
2022-11-24T05:29:24.020Z,100258.97
2022-11-24T05:31:50.473Z,100259.72
2022-11-24T05:34:18.257Z,100264.91
2022-11-24T05:36:54.069Z,100262.50
2022-11-24T05:39:21.323Z,100273.16
2022-11-24T05:41:47.808Z,100276.31
2022-11-24T05:44:14.302Z,100270.78
2022-11-24T05:46:40.777Z,100265.66
2022-11-24T05:49:07.250Z,100272.28
2022-11-24T05:51:33.754Z,100272.66
2022-11-24T05:54:00.170Z,100276.19
2022-11-24T05:56:26.624Z,100273.50
2022-11-24T05:58:53.064Z,100276.97
2022-11-24T06:01:19.559Z,100281.34
2022-11-24T06:03:45.971Z,100282.06
2022-11-24T06:06:12.450Z,100284.91
2022-11-24T06:08:38.897Z,100289.56
2022-11-24T06:11:20.473Z,100287.22
2022-11-24T06:13:50.922Z,100298.66
2022-11-24T06:16:17.710Z,100293.91
2022-11-24T06:18:44.416Z,100284.03
2022-11-24T06:21:11.991Z,100293.91
2022-11-24T06:23:39.210Z,100300.22
2022-11-24T06:26:06.302Z,100301.09
2022-11-24T06:28:33.011Z,100306.59
2022-11-24T06:31:03.914Z,100298.69
2022-11-24T06:33:35.002Z,100298.63
2022-11-24T06:36:07.960Z,100309.34
2022-11-24T06:38:36.093Z,100310.91
2022-11-24T06:41:13.204Z,100314.47
2022-11-24T06:43:40.108Z,100318.44
2022-11-24T06:46:06.910Z,100321.59
2022-11-24T06:48:33.516Z,100335.03
2022-11-24T06:51:01.266Z,100328.34
2022-11-24T06:53:33.609Z,100344.53
2022-11-24T06:56:01.674Z,100339.41
2022-11-24T06:58:28.286Z,100343.72
2022-11-24T07:00:54.821Z,100350.88
2022-11-24T07:03:21.377Z,100347.25
2022-11-24T07:05:47.980Z,100346.44
2022-11-24T07:08:17.751Z,100348.81
2022-11-24T07:10:44.907Z,100356.34
2022-11-24T07:13:11.469Z,100369.03
2022-11-24T07:15:37.915Z,100374.13
2022-11-24T07:18:04.706Z,100375.28
2022-11-24T07:20:31.218Z,100383.59
2022-11-24T07:22:58.490Z,100382.00
2022-11-24T07:25:28.406Z,100397.38
2022-11-24T07:27:59.090Z,100391.81
2022-11-24T07:30:26.694Z,100400.16
2022-11-24T07:32:59.194Z,100409.66
2022-11-24T07:35:25.669Z,100414.72
2022-11-24T07:37:58.255Z,100414.00
2022-11-24T07:40:26.633Z,100410.38
2022-11-24T07:42:53.934Z,100419.06
2022-11-24T07:45:20.856Z,100424.25
2022-11-24T07:47:47.339Z,100421.84
2022-11-24T07:50:13.928Z,100435.28
2022-11-24T07:52:40.412Z,100443.63
2022-11-24T07:55:07.890Z,100443.66
2022-11-24T07:57:35.017Z,100444.81
2022-11-24T08:00:02.093Z,100449.53
2022-11-24T08:02:28.558Z,100464.53
2022-11-24T08:04:55.126Z,100464.94
2022-11-24T08:07:21.688Z,100465.44
2022-11-24T08:09:50.380Z,100479.28
2022-11-24T08:12:21.470Z,100482.44
2022-11-24T08:14:50.327Z,100471.78
2022-11-24T08:17:20.181Z,100486.81
2022-11-24T08:19:46.909Z,100493.94
2022-11-24T08:22:13.404Z,100504.19
2022-11-24T08:24:46.084Z,100501.41
2022-11-24T08:27:13.889Z,100501.00
2022-11-24T08:29:40.338Z,100496.31
2022-11-24T08:32:07.011Z,100504.22
2022-11-24T08:34:33.938Z,100506.53
2022-11-24T08:37:00.730Z,100508.94
2022-11-24T08:39:27.176Z,100517.63
2022-11-24T08:41:53.641Z,100525.50
2022-11-24T08:44:20.161Z,100516.00
2022-11-24T08:46:46.749Z,100527.84
2022-11-24T08:49:15.018Z,100538.91
2022-11-24T08:51:42.137Z,100532.22
2022-11-24T08:54:13.496Z,100546.84
2022-11-24T08:56:40.208Z,100549.19
2022-11-24T08:59:07.202Z,100552.31
2022-11-24T09:01:33.848Z,100544.41
2022-11-24T09:04:00.550Z,100554.28
2022-11-24T09:06:30.697Z,100559.41
2022-11-24T09:08:58.397Z,100568.94
2022-11-24T09:11:27.094Z,100568.94
2022-11-24T09:13:55.104Z,100565.78
2022-11-24T09:16:25.780Z,100573.69
2022-11-24T09:18:56.263Z,100568.94
2022-11-24T09:21:23.871Z,100568.91
2022-11-24T09:23:52.027Z,100569.75
2022-11-24T09:26:24.504Z,100576.84
2022-11-24T09:28:54.501Z,100580.41
2022-11-24T09:31:24.141Z,100598.97
2022-11-24T09:33:52.325Z,100585.53
2022-11-24T09:36:19.621Z,100607.66
2022-11-24T09:38:46.531Z,100608.44
2022-11-24T09:41:30.932Z,100605.28
2022-11-24T09:44:22.482Z,100613.56
2022-11-24T09:47:12.744Z,100613.94
2022-11-24T09:50:06.479Z,100609.16
2022-11-24T09:52:35.851Z,100618.25
2022-11-24T09:55:05.438Z,100620.63
2022-11-24T09:57:37.719Z,100628.91
2022-11-24T10:00:12.373Z,100634.81
2022-11-24T10:02:39.328Z,100630.06
2022-11-24T10:05:06.956Z,100632.81
2022-11-24T10:07:42.761Z,100634.44
2022-11-24T10:10:25.106Z,100642.31
2022-11-24T10:13:13.147Z,100647.84
2022-11-24T10:15:58.913Z,100656.59
2022-11-24T10:18:55.685Z,100653.81
2022-11-24T10:21:56.303Z,100664.88
2022-11-24T10:24:35.653Z,100665.28
2022-11-24T10:27:10.752Z,100673.19
2022-11-24T10:29:42.272Z,100662.47
2022-11-24T10:32:19.235Z,100664.44
2022-11-24T10:34:49.923Z,100664.06
2022-11-24T10:37:25.494Z,100672.75
2022-11-24T10:40:05.626Z,100669.97
2022-11-24T10:42:36.891Z,100673.50
2022-11-24T10:45:06.274Z,100677.44
2022-11-24T10:47:32.678Z,100691.72
2022-11-24T10:50:14.132Z,100682.59
2022-11-24T10:52:44.755Z,100688.09
2022-11-24T10:55:11.256Z,100680.19
2022-11-24T10:57:39.968Z,100690.44
2022-11-24T11:00:26.674Z,100692.34
2022-11-24T11:03:17.660Z,100695.44
2022-11-24T11:05:50.828Z,100695.75
2022-11-24T11:08:21.801Z,100695.00
2022-11-24T11:11:14.012Z,100709.28
2022-11-24T11:14:07.258Z,100689.41
2022-11-24T11:16:33.910Z,100688.19
2022-11-24T11:19:15.648Z,100697.28
2022-11-24T11:22:00.343Z,100708.31
2022-11-24T11:24:28.549Z,100714.41
2022-11-24T11:27:04.524Z,100707.28
2022-11-24T11:35:12.466Z,100716.34
2022-11-24T11:37:39.044Z,100723.19
2022-11-24T11:40:16.003Z,100727.53
2022-11-24T11:43:02.314Z,100729.16
2022-11-24T11:45:35.433Z,100724.59
2022-11-24T11:48:01.910Z,100725.94
2022-11-24T11:51:21.716Z,100737.69
2022-11-24T11:53:46.493Z,100742.75
2022-11-24T11:56:35.218Z,100738.31
2022-11-24T11:59:24.051Z,100740.38
2022-11-24T12:02:12.436Z,100728.13
2022-11-24T12:05:00.998Z,100738.69
2022-11-24T12:07:42.688Z,100736.31
2022-11-24T12:10:24.424Z,100728.78
2022-11-24T12:13:18.254Z,100746.19
2022-11-24T12:15:54.699Z,100746.09
2022-11-24T12:21:29.902Z,100743.84
2022-11-24T12:24:05.047Z,100744.59
2022-11-24T12:26:40.702Z,100745.94
2022-11-24T12:29:31.330Z,100746.84
2022-11-24T12:32:10.105Z,100748.56
2022-11-24T12:34:42.517Z,100741.94
2022-11-24T12:37:24.240Z,100737.06
2022-11-24T12:40:01.941Z,100740.19
2022-11-24T12:42:49.390Z,100738.31
2022-11-24T12:45:22.244Z,100734.88
2022-11-24T12:47:48.663Z,100741.22
2022-11-24T12:50:20.966Z,100743.56
2022-11-24T12:53:00.615Z,100738.50
2022-11-24T12:55:28.784Z,100735.34
2022-11-24T12:58:11.981Z,100731.91
2022-11-24T13:01:00.211Z,100729.19
2022-11-24T13:03:50.427Z,100732.47
2022-11-24T13:06:27.969Z,100731.47
2022-11-24T13:08:54.486Z,100736.78
2022-11-24T13:11:20.858Z,100736.22
2022-11-24T13:13:56.809Z,100734.31
2022-11-24T13:16:53.521Z,100731.81
2022-11-24T13:19:17.167Z,100731.63
2022-11-24T13:21:45.384Z,100731.34
2022-11-24T13:24:18.954Z,100740.50
2022-11-24T13:26:48.496Z,100739.63
2022-11-24T13:29:27.169Z,100743.34
2022-11-24T13:32:14.644Z,100748.06
2022-11-24T13:34:45.476Z,100745.31
2022-11-24T13:37:35.508Z,100758.41
2022-11-24T13:40:31.462Z,100747.06
2022-11-24T13:42:57.883Z,100747.81
2022-11-24T13:45:39.940Z,100747.28
2022-11-24T13:48:18.711Z,100758.16
2022-11-24T13:50:51.757Z,100766.31
2022-11-24T13:53:18.368Z,100765.75
2022-11-24T13:55:55.075Z,100761.41
2022-11-24T13:58:35.998Z,100765.38
2022-11-24T14:01:14.634Z,100763.44
2022-11-24T14:04:28.759Z,100768.22
2022-11-24T14:06:43.418Z,100757.72
2022-11-24T14:09:31.996Z,100761.94
2022-11-24T14:12:03.966Z,100759.31
2022-11-24T14:14:30.417Z,100764.09
2022-11-24T14:17:06.419Z,100754.91
2022-11-24T14:19:32.898Z,100761.44
2022-11-24T14:21:59.421Z,100754.41
2022-11-24T14:24:33.445Z,100756.41
2022-11-24T14:27:01.979Z,100768.88
2022-11-24T14:29:32.976Z,100771.03
2022-11-24T14:32:04.820Z,100766.41
2022-11-24T14:34:35.433Z,100778.69
2022-11-24T14:37:02.325Z,100773.72
2022-11-24T14:39:30.130Z,100773.06
2022-11-24T14:42:16.142Z,100771.78
2022-11-24T14:45:03.832Z,100768.28
2022-11-24T14:47:38.795Z,100767.53
2022-11-24T14:50:10.652Z,100765.69
2022-11-24T14:52:49.937Z,100769.66
2022-11-24T14:55:30.786Z,100777.75
2022-11-24T14:57:58.519Z,100770.41
2022-11-24T15:00:24.898Z,100766.84
2022-11-24T15:03:07.414Z,100768.25
2022-11-24T15:05:55.407Z,100768.63
2022-11-24T15:08:23.855Z,100772.56
2022-11-24T15:10:57.490Z,100771.13
2022-11-24T15:13:25.243Z,100764.03
2022-11-24T15:16:03.272Z,100767.63
2022-11-24T15:18:30.041Z,100771.59
2022-11-24T15:20:57.012Z,100769.34
2022-11-24T15:23:27.971Z,100773.34
2022-11-24T15:25:56.597Z,100766.25
2022-11-24T15:28:27.010Z,100765.47
2022-11-24T15:30:54.900Z,100782.59
2022-11-24T15:33:22.640Z,100785.03
2022-11-24T15:35:49.419Z,100783.53
2022-11-24T15:38:16.360Z,100789.53
2022-11-24T15:40:46.394Z,100795.56
2022-11-24T15:43:23.001Z,100797.53
2022-11-24T15:45:49.543Z,100793.19
2022-11-24T15:48:18.220Z,100798.75
2022-11-24T15:50:46.504Z,100801.94
2022-11-24T15:53:21.387Z,100808.31
2022-11-24T15:55:48.717Z,100797.63
2022-11-24T15:58:15.537Z,100804.38
2022-11-24T16:00:43.406Z,100803.59
2022-11-24T16:03:44.598Z,100801.63
2022-11-24T16:05:57.303Z,100809.53
2022-11-24T16:08:23.794Z,100803.66
2022-11-24T16:10:51.231Z,100815.47
2022-11-24T16:13:17.727Z,100810.34
2022-11-24T16:15:45.735Z,100819.44
2022-11-24T16:18:13.897Z,100818.25
2022-11-24T16:20:40.462Z,100820.63
2022-11-24T16:23:06.996Z,100813.88
2022-11-24T16:25:33.448Z,100832.03
2022-11-24T16:28:00.019Z,100824.91
2022-11-24T16:30:26.560Z,100834.41
2022-11-24T16:32:53.081Z,100841.16
2022-11-24T16:35:20.067Z,100835.19
2022-11-24T16:37:46.710Z,100823.75
2022-11-24T16:40:13.422Z,100839.94
2022-11-24T16:42:39.876Z,100840.31
2022-11-24T16:45:06.960Z,100835.56
2022-11-24T16:47:39.373Z,100826.47
2022-11-24T16:50:07.326Z,100831.19
2022-11-24T16:52:33.840Z,100833.91
2022-11-24T16:55:00.402Z,100821.66
2022-11-24T16:57:26.857Z,100824.00
2022-11-24T16:59:53.293Z,100827.16
2022-11-24T17:02:19.881Z,100828.72
2022-11-24T17:04:46.396Z,100823.22
2022-11-24T17:07:14.105Z,100821.66
2022-11-24T17:09:41.015Z,100821.25
2022-11-24T17:12:07.778Z,100829.97
2022-11-24T17:14:34.506Z,100830.38
2022-11-24T17:17:01.236Z,100825.69
2022-11-24T17:19:28.404Z,100822.13
2022-11-24T17:21:54.941Z,100821.69
2022-11-24T17:24:21.511Z,100825.25
2022-11-24T17:26:50.923Z,100824.09
2022-11-24T17:29:18.085Z,100824.50
2022-11-24T17:31:44.698Z,100824.91
2022-11-24T17:34:12.185Z,100827.66
2022-11-24T17:36:39.680Z,100829.63
2022-11-24T17:39:09.409Z,100816.16
2022-11-24T17:41:35.978Z,100834.00
2022-11-24T17:44:02.912Z,100835.56
2022-11-24T17:46:30.252Z,100825.72
2022-11-24T17:48:56.986Z,100824.91
2022-11-24T17:51:25.377Z,100839.16
2022-11-24T17:53:53.591Z,100834.41
2022-11-24T17:56:25.315Z,100835.19
2022-11-24T17:58:56.633Z,100845.84
2022-11-24T18:01:24.302Z,100846.22
2022-11-24T18:03:53.722Z,100844.19
2022-11-24T18:06:23.997Z,100844.19
2022-11-24T18:08:50.598Z,100840.25
2022-11-24T18:11:17.125Z,100848.53
2022-11-24T18:14:00.937Z,100834.28
2022-11-24T18:16:30.211Z,100842.97
2022-11-24T18:19:14.331Z,100845.38
2022-11-24T18:21:41.541Z,100846.97
2022-11-24T18:24:10.012Z,100849.72
2022-11-24T18:26:36.851Z,100849.72
2022-11-24T18:29:03.980Z,100841.38
2022-11-24T18:31:31.238Z,100852.47
2022-11-24T18:33:57.806Z,100861.16
2022-11-24T18:36:30.052Z,100861.16
2022-11-24T18:38:57.024Z,100860.38
2022-11-24T18:41:23.558Z,100865.94
2022-11-24T18:43:49.991Z,100864.31
2022-11-24T18:46:19.032Z,100866.69
2022-11-24T18:48:45.856Z,100875.38
2022-11-24T18:51:15.716Z,100877.72
2022-11-24T18:53:44.202Z,100870.63
2022-11-24T18:56:16.108Z,100878.50
2022-11-24T18:58:43.543Z,100873.41
2022-11-24T19:01:21.727Z,100868.63
2022-11-24T19:03:51.416Z,100880.50
2022-11-24T19:06:19.380Z,100873.78
2022-11-24T19:08:46.286Z,100878.53
2022-11-24T19:11:20.172Z,100880.50
2022-11-24T19:13:47.686Z,100874.16
2022-11-24T19:16:15.209Z,100877.72
2022-11-24T19:18:41.759Z,100877.28
2022-11-24T19:21:08.402Z,100883.16
2022-11-24T19:23:34.892Z,100865.84
2022-11-24T19:26:02.700Z,100866.59
2022-11-24T19:28:29.467Z,100852.38
2022-11-24T19:31:10.369Z,100861.06
2022-11-24T19:33:37.002Z,100861.03
2022-11-24T19:36:15.241Z,100858.28
2022-11-24T19:38:43.191Z,100851.94
2022-11-24T19:41:12.471Z,100855.09
2022-11-24T19:43:40.238Z,100865.75
2022-11-24T19:46:15.134Z,100859.44
2022-11-24T19:48:43.604Z,100858.63
2022-11-24T19:51:13.734Z,100852.72
2022-11-24T19:53:40.763Z,100862.56
2022-11-24T19:56:09.796Z,100858.63
2022-11-24T19:58:37.697Z,100856.25
2022-11-24T20:01:13.884Z,100849.88
2022-11-24T20:03:42.005Z,100855.47
2022-11-24T20:06:10.400Z,100862.16
2022-11-24T20:08:38.322Z,100860.97
2022-11-24T20:11:10.027Z,100865.25
2022-11-24T20:13:38.581Z,100874.69
2022-11-24T20:16:09.737Z,100857.31
2022-11-24T20:18:41.919Z,100858.09
2022-11-24T20:21:11.463Z,100864.03
2022-11-24T20:23:38.726Z,100856.53
2022-11-24T20:26:11.693Z,100860.47
2022-11-24T20:28:39.111Z,100858.47
2022-11-24T20:31:08.086Z,100847.78
2022-11-24T20:33:35.469Z,100846.97
2022-11-24T20:36:07.719Z,100847.25
2022-11-24T20:38:34.708Z,100853.16
2022-11-24T20:41:09.818Z,100844.44
2022-11-24T20:43:37.930Z,100855.84
2022-11-24T20:46:10.174Z,100853.00
2022-11-24T20:48:37.429Z,100858.91
2022-11-24T20:51:09.102Z,100858.47
2022-11-24T20:53:36.470Z,100854.94
2022-11-24T20:56:08.832Z,100855.75
2022-11-24T20:58:37.703Z,100855.34
2022-11-24T21:01:10.453Z,100849.00
2022-11-24T21:03:42.778Z,100850.47
2022-11-24T21:06:11.001Z,100851.53
2022-11-24T21:08:39.118Z,100857.00
2022-11-24T21:11:07.384Z,100842.06
2022-11-24T21:13:35.536Z,100853.91
2022-11-24T21:16:14.872Z,100853.59
2022-11-24T21:18:42.411Z,100847.38
2022-11-24T21:21:09.259Z,100858.81
2022-11-24T21:23:35.984Z,100858.41
2022-11-24T21:26:06.734Z,100848.94
2022-11-24T21:28:34.790Z,100856.03
2022-11-24T21:31:09.578Z,100856.03
2022-11-24T21:33:46.529Z,100853.97
2022-11-24T21:36:15.215Z,100856.78
2022-11-24T21:38:45.600Z,100859.91
2022-11-24T21:41:13.931Z,100852.84
2022-11-24T21:43:40.474Z,100856.34
2022-11-24T21:46:10.569Z,100846.44
2022-11-24T21:48:38.601Z,100848.78
2022-11-24T21:51:07.672Z,100842.00
2022-11-24T21:53:36.079Z,100848.25
2022-11-24T21:56:05.963Z,100842.69
2022-11-24T21:58:33.759Z,100842.59
2022-11-24T22:01:04.913Z,100848.00
2022-11-24T22:03:31.523Z,100839.78
2022-11-24T22:05:59.775Z,100841.00
2022-11-24T22:08:27.815Z,100833.97
2022-11-24T22:10:59.896Z,100833.53
2022-11-24T22:13:26.347Z,100818.84
2022-11-24T22:16:04.532Z,100829.81
2022-11-24T22:18:33.015Z,100818.00
2022-11-24T22:20:59.777Z,100827.03
2022-11-24T22:23:26.469Z,100814.75
2022-11-24T22:25:52.970Z,100816.69
2022-11-24T22:28:19.422Z,100823.50
2022-11-24T22:30:45.884Z,100820.84
2022-11-24T22:33:13.668Z,100820.91
2022-11-24T22:35:40.147Z,100820.56
2022-11-24T22:38:06.668Z,100813.09
2022-11-24T22:40:33.134Z,100818.31
2022-11-24T22:42:59.589Z,100818.69
2022-11-24T22:45:26.441Z,100818.31
2022-11-24T22:47:55.953Z,100806.84
2022-11-24T22:50:22.372Z,100809.88
2022-11-24T22:52:50.080Z,100812.22
2022-11-24T22:55:16.595Z,100811.91
2022-11-24T22:57:47.928Z,100815.47
2022-11-24T23:00:18.317Z,100810.38
2022-11-24T23:02:44.801Z,100808.84
2022-11-24T23:05:11.240Z,100814.72
2022-11-24T23:07:37.796Z,100806.47
2022-11-24T23:10:04.391Z,100814.78
2022-11-24T23:12:30.854Z,100803.38
2022-11-24T23:14:57.301Z,100813.69
2022-11-24T23:17:23.803Z,100814.09
2022-11-24T23:19:50.294Z,100812.19
2022-11-24T23:22:17.848Z,100806.72
2022-11-24T23:24:44.261Z,100797.31
2022-11-24T23:27:10.706Z,100796.53
2022-11-24T23:29:37.160Z,100796.59
2022-11-24T23:32:03.760Z,100794.25
2022-11-24T23:34:30.210Z,100795.16
2022-11-24T23:36:56.655Z,100782.59
2022-11-24T23:39:24.216Z,100785.00
2022-11-24T23:41:50.698Z,100783.91
2022-11-24T23:44:17.140Z,100779.63
2022-11-24T23:46:43.636Z,100776.13
2022-11-24T23:49:10.148Z,100778.13
2022-11-24T23:51:38.008Z,100782.09
2022-11-24T23:54:08.004Z,100767.50
2022-11-24T23:56:34.457Z,100774.25
2022-11-24T23:59:02.160Z,100767.94
